createdAt,value
2022-11-20T11:04:44.142Z,2.72
2022-11-20T11:05:53.280Z,2.85
2022-11-20T11:07:06.371Z,2.80
2022-11-20T11:08:20.396Z,2.42
2022-11-20T11:09:33.096Z,3.42
2022-11-20T11:11:00.102Z,2.95
2022-11-20T11:12:07.250Z,4.07
2022-11-20T11:13:20.920Z,7.88
2022-11-20T11:14:25.438Z,6.55
2022-11-20T11:15:39.285Z,5.10
2022-11-20T11:16:52.256Z,2.95
2022-11-20T11:17:53.743Z,3.35
2022-11-20T11:19:12.563Z,3.08
2022-11-20T11:20:19.710Z,2.15
2022-11-20T11:21:25.047Z,1.38
2022-11-20T11:22:28.819Z,1.83
2022-11-20T11:23:32.899Z,1.65
2022-11-20T11:24:42.142Z,2.22
2022-11-20T11:30:21.559Z,1.75
2022-11-20T11:31:31.212Z,2.30
2022-11-20T11:32:32.578Z,1.50
2022-11-20T11:33:36.871Z,1.83
2022-11-20T11:34:38.300Z,1.23
2022-11-20T11:35:51.941Z,1.60
2022-11-20T11:36:58.372Z,1.50
2022-11-20T11:38:13.381Z,1.60
2022-11-20T11:39:20.985Z,1.40
2022-11-20T11:40:24.973Z,2.63
2022-11-20T11:41:34.331Z,5.00
2022-11-20T11:42:35.847Z,1.98
2022-11-20T11:43:57.483Z,1.33
2022-11-20T11:45:07.114Z,2.13
2022-11-20T11:46:20.721Z,1.77
2022-11-20T11:47:44.474Z,1.55
2022-11-20T11:48:57.078Z,1.90
2022-11-20T11:50:10.790Z,1.55
2022-11-20T11:51:12.206Z,1.80
2022-11-20T11:52:20.371Z,1.45
2022-11-20T11:53:24.577Z,1.65
2022-11-20T11:54:33.399Z,1.58
2022-11-20T11:55:41.497Z,2.10
2022-11-20T11:56:43.489Z,1.90
2022-11-20T11:58:02.890Z,1.55
2022-11-20T11:59:13.235Z,1.80
2022-11-20T12:00:17.106Z,1.60
2022-11-20T12:01:33.772Z,1.60
2022-11-20T12:02:57.377Z,1.33
2022-11-20T12:04:13.082Z,1.50
2022-11-20T12:05:20.551Z,1.13
2022-11-20T12:06:24.935Z,2.03
2022-11-20T12:07:47.887Z,1.33
2022-11-20T12:08:56.737Z,1.40
2022-11-20T12:09:59.484Z,1.10
2022-11-20T12:11:25.127Z,1.52
2022-11-20T12:12:40.200Z,1.50
2022-11-20T12:14:04.222Z,1.52
2022-11-20T12:15:11.812Z,1.55
2022-11-20T12:16:16.290Z,1.23
2022-11-20T12:17:18.776Z,1.00
2022-11-20T12:18:22.662Z,1.48
2022-11-20T12:19:24.946Z,1.33
2022-11-20T12:20:46.052Z,1.15
2022-11-20T12:21:50.865Z,1.40
2022-11-20T12:23:00.703Z,1.50
2022-11-20T12:24:23.109Z,1.45
2022-11-20T12:25:35.507Z,1.42
2022-11-20T12:26:39.622Z,1.40
2022-11-20T12:27:53.162Z,1.35
2022-11-20T12:29:10.623Z,1.27
2022-11-20T12:30:20.657Z,1.10
2022-11-20T12:31:49.824Z,1.92
2022-11-20T12:33:28.642Z,1.67
2022-11-20T12:34:32.953Z,1.75
2022-11-20T12:36:06.861Z,1.75
2022-11-20T12:37:23.706Z,1.20
2022-11-20T12:38:37.261Z,1.35
2022-11-20T12:39:53.857Z,1.90
2022-11-20T12:41:37.018Z,1.63
2022-11-20T12:43:10.996Z,2.42
2022-11-20T12:44:49.521Z,1.40
2022-11-20T12:46:23.697Z,2.53
2022-11-20T12:47:46.226Z,1.55
2022-11-20T12:48:53.668Z,1.15
2022-11-20T12:50:14.054Z,1.63
2022-11-20T12:51:43.716Z,0.90
2022-11-20T12:53:01.270Z,1.10
2022-11-20T12:54:36.045Z,1.08
2022-11-20T12:55:49.501Z,1.20
2022-11-20T12:57:48.427Z,1.58
2022-11-20T12:59:24.936Z,1.00
2022-11-20T13:00:27.049Z,1.10
2022-11-20T13:01:49.142Z,1.05
2022-11-20T13:03:08.720Z,1.30
2022-11-20T13:04:38.879Z,2.45
2022-11-20T13:06:01.840Z,2.97
2022-11-20T13:07:12.974Z,1.30
2022-11-20T13:08:39.695Z,1.10
2022-11-20T13:09:47.923Z,1.27
2022-11-20T13:11:03.682Z,1.05
2022-11-20T13:12:30.088Z,1.10
2022-11-20T13:13:57.577Z,1.48
2022-11-20T13:15:18.765Z,1.20
2022-11-20T13:16:23.163Z,1.30
2022-11-20T13:17:35.587Z,0.80
2022-11-20T13:18:42.592Z,0.98
2022-11-20T13:19:50.781Z,1.05
2022-11-20T13:20:52.675Z,1.20
2022-11-20T13:21:54.177Z,1.20
2022-11-20T13:22:58.214Z,0.85
2022-11-20T13:24:27.188Z,1.02
2022-11-20T13:25:36.969Z,1.70
2022-11-20T13:26:38.408Z,1.40
2022-11-20T13:27:48.925Z,1.95
2022-11-20T13:29:22.996Z,1.42
2022-11-20T13:30:26.896Z,1.40
2022-11-20T13:31:36.538Z,1.50
2022-11-20T13:32:48.539Z,0.90
2022-11-20T13:33:55.571Z,0.90
2022-11-20T13:34:59.787Z,1.15
2022-11-20T13:36:07.263Z,1.08
2022-11-20T13:37:35.370Z,1.27
2022-11-20T13:38:52.300Z,1.33
2022-11-20T13:39:53.682Z,1.50
2022-11-20T13:40:58.005Z,1.08
2022-11-20T13:42:24.745Z,1.10
2022-11-20T13:43:45.605Z,1.30
2022-11-20T13:44:56.201Z,1.40
2022-11-20T13:46:01.814Z,0.85
2022-11-20T13:47:03.300Z,1.20
2022-11-20T13:48:22.746Z,1.10
2022-11-20T13:49:55.397Z,1.13
2022-11-20T13:50:56.705Z,1.40
2022-11-20T13:52:13.809Z,1.80
2022-11-20T13:53:33.935Z,2.20
2022-11-20T13:54:44.768Z,2.00
2022-11-20T13:56:00.653Z,1.40
2022-11-20T13:57:16.628Z,1.30
2022-11-20T13:58:20.856Z,1.25
2022-11-20T13:59:25.152Z,1.92
2022-11-20T14:00:27.290Z,1.50
2022-11-20T14:01:35.533Z,1.30
2022-11-20T14:02:37.206Z,1.13
2022-11-20T14:05:02.706Z,1.20
2022-11-20T14:06:06.641Z,1.10
2022-11-20T14:07:08.233Z,2.83
2022-11-20T14:08:21.682Z,4.10
2022-11-20T14:09:36.120Z,3.25
2022-11-20T14:10:40.211Z,3.67
2022-11-20T14:11:48.843Z,3.95
2022-11-20T14:12:51.651Z,2.28
2022-11-20T14:13:55.192Z,2.30
2022-11-20T14:14:57.095Z,1.77
2022-11-20T14:15:59.255Z,1.00
2022-11-20T14:17:21.938Z,1.40
2022-11-20T14:18:23.371Z,1.48
2022-11-20T14:19:29.335Z,2.03
2022-11-20T14:20:32.253Z,2.00
2022-11-20T14:21:33.687Z,4.93
2022-11-20T14:22:35.232Z,3.38
2022-11-20T14:23:36.700Z,5.40
2022-11-20T14:24:38.244Z,8.35
2022-11-20T14:25:47.695Z,5.78
2022-11-20T14:26:49.267Z,1.50
2022-11-20T14:27:57.224Z,1.20
2022-11-20T14:28:59.211Z,1.75
2022-11-20T14:30:02.243Z,2.50
2022-11-20T14:31:03.673Z,1.48
2022-11-20T14:32:05.812Z,1.60
2022-11-20T14:33:07.260Z,1.45
2022-11-20T14:34:18.126Z,1.58
2022-11-20T14:35:26.433Z,1.75
2022-11-20T14:36:32.067Z,1.92
2022-11-20T14:37:37.683Z,1.65
2022-11-20T14:38:39.424Z,2.05
2022-11-20T14:39:50.262Z,1.33
2022-11-20T14:40:51.760Z,1.33
2022-11-20T14:41:54.380Z,1.65
2022-11-20T14:42:56.853Z,1.65
2022-11-20T14:44:00.019Z,2.10
2022-11-20T14:45:02.146Z,1.88
2022-11-20T14:46:06.607Z,1.50
2022-11-20T14:47:13.772Z,1.10
2022-11-20T14:48:16.580Z,1.20
2022-11-20T14:49:18.285Z,1.00
2022-11-20T14:50:23.804Z,1.10
2022-11-20T14:51:34.316Z,1.10
2022-11-20T14:52:35.664Z,1.33
2022-11-20T14:53:37.139Z,1.25
2022-11-20T14:54:46.863Z,1.23
2022-11-20T14:56:00.283Z,1.42
2022-11-20T14:57:04.472Z,1.98
2022-11-20T14:58:23.628Z,1.35
2022-11-20T14:59:33.280Z,1.10
2022-11-20T15:00:36.238Z,1.40
2022-11-20T15:01:38.507Z,1.42
2022-11-20T15:02:42.798Z,1.30
2022-11-20T15:03:44.292Z,1.00
2022-11-20T15:05:00.147Z,1.13
2022-11-20T15:06:02.383Z,1.77
2022-11-20T15:07:03.925Z,1.30
2022-11-20T15:08:10.081Z,1.70
2022-11-20T15:09:15.652Z,1.60
2022-11-20T15:10:19.777Z,1.40
2022-11-20T15:11:32.063Z,1.60
2022-11-20T15:12:36.830Z,1.45
2022-11-20T15:13:39.927Z,1.63
2022-11-20T15:14:41.283Z,2.05
2022-11-20T15:15:52.998Z,1.00
2022-11-20T15:16:55.212Z,1.52
2022-11-20T15:17:56.827Z,1.77
2022-11-20T15:18:58.345Z,1.30
2022-11-20T15:20:02.190Z,2.00
2022-11-20T15:21:07.309Z,1.40
2022-11-20T15:22:19.900Z,2.38
2022-11-20T15:23:21.325Z,2.70
2022-11-20T15:24:26.218Z,2.13
2022-11-20T15:25:29.067Z,2.08
2022-11-20T15:26:30.608Z,2.70
2022-11-20T15:27:32.041Z,3.63
2022-11-20T15:28:51.018Z,4.15
2022-11-20T15:29:52.628Z,3.80
